sensor_id;sensor_type;location;lat;lon;timestamp;pressure;altitude;pressure_sealevel;temperature;humidity
20145;BME280;10233;50.814;6.590;2024-01-15T00:00:01;99071.69;;;1.93;100.00
20145;BME280;10233;50.814;6.590;2024-01-15T00:01:11;99072.00;;;1.98;100.00
20145;BME280;10233;50.814;6.590;2024-01-15T00:02:11;99072.66;;;2.00;100.00
20145;BME280;10233;50.814;6.590;2024-01-15T00:03:12;99067.75;;;1.97;100.00
20145;BME280;10233;50.814;6.590;2024-01-15T00:04:12;99072.69;;;1.92;100.00
20145;BME280;10233;50.814;6.590;2024-01-15T00:05:13;99064.38;;;1.89;100.00
20145;BME280;10233;50.814;6.590;2024-01-15T00:06:13;99072.97;;;1.97;100.00
20145;BME280;10233;50.814;6.590;2024-01-15T00:07:14;99070.09;;;1.92;100.00
20145;BME280;10233;50.814;6.590;2024-01-15T00:08:14;99069.44;;;1.90;100.00
20145;BME280;10233;50.814;6.590;2024-01-15T00:09:14;99072.88;;;1.91;100.00
20145;BME280;10233;50.814;6.590;2024-01-15T00:10:16;99058.03;;;1.83;100.00
20145;BME280;10233;50.814;6.590;2024-01-15T00:11:16;99063.09;;;1.85;100.00
20145;BME280;10233;50.814;6.590;2024-01-15T00:12:16;99061.47;;;1.84;100.00
20145;BME280;10233;50.814;6.590;2024-01-15T00:13:17;99057.41;;;1.81;100.00
20145;BME280;10233;50.814;6.590;2024-01-15T00:14:17;99060.31;;;1.86;100.00
20145;BME280;10233;50.814;6.590;2024-01-15T00:15:20;99063.09;;;1.85;100.00
20145;BME280;10233;50.814;6.590;2024-01-15T00:16:21;99063.22;;;1.91;100.00
20145;BME280;10233;50.814;6.590;2024-01-15T00:17:21;99057.03;;;1.84;100.00
20145;BME280;10233;50.814;6.590;2024-01-15T00:18:23;99051.81;;;1.84;100.00
20145;BME280;10233;50.814;6.590;2024-01-15T00:19:24;99057.75;;;1.78;100.00
20145;BME280;10233;50.814;6.590;2024-01-15T00:20:24;99065.06;;;1.83;100.00
20145;BME280;10233;50.814;6.590;2024-01-15T00:21:25;99061.00;;;1.80;100.00
20145;BME280;10233;50.814;6.590;2024-01-15T00:22:26;99061.00;;;1.80;100.00
20145;BME280;10233;50.814;6.590;2024-01-15T00:23:27;99056.94;;;1.77;100.00
20145;BME280;10233;50.814;6.590;2024-01-15T00:24:27;99058.47;;;1.72;100.00
20145;BME280;10233;50.814;6.590;2024-01-15T00:25:28;99058.09;;;1.75;100.00
20145;BME280;10233;50.814;6.590;2024-01-15T00:26:28;99058.22;;;1.82;100.00
20145;BME280;10233;50.814;6.590;2024-01-15T00:27:29;99052.06;;;1.75;100.00
20145;BME280;10233;50.814;6.590;2024-01-15T00:28:29;99058.91;;;1.76;100.00
20145;BME280;10233;50.814;6.590;2024-01-15T00:29:30;99056.13;;;1.77;100.00
20145;BME280;10233;50.814;6.590;2024-01-15T00:30:30;99048.28;;;1.77;100.00
20145;BME280;10233;50.814;6.590;2024-01-15T00:31:30;99053.69;;;1.76;100.00
20145;BME280;10233;50.814;6.590;2024-01-15T00:32:31;99047.00;;;1.73;100.00
20145;BME280;10233;50.814;6.590;2024-01-15T00:33:31;99048.28;;;1.77;100.00
20145;BME280;10233;50.814;6.590;2024-01-15T00:34:32;99040.03;;;1.80;100.00
20145;BME280;10233;50.814;6.590;2024-01-15T00:35:32;99048.44;;;1.76;100.00
20145;BME280;10233;50.814;6.590;2024-01-15T00:36:33;99050.53;;;1.80;100.00
20145;BME280;10233;50.814;6.590;2024-01-15T00:37:33;99037.44;;;1.80;100.00
20145;BME280;10233;50.814;6.590;2024-01-15T00:38:34;99042.31;;;1.83;100.00
20145;BME280;10233;50.814;6.590;2024-01-15T00:39:34;99041.69;;;1.81;100.00
20145;BME280;10233;50.814;6.590;2024-01-15T00:40:35;99036.47;;;1.81;100.00
20145;BME280;10233;50.814;6.590;2024-01-15T00:41:36;99036.09;;;1.84;100.00
20145;BME280;10233;50.814;6.590;2024-01-15T00:42:37;99029.41;;;1.82;100.00
20145;BME280;10233;50.814;6.590;2024-01-15T00:43:37;99027.59;;;1.82;100.00
20145;BME280;10233;50.814;6.590;2024-01-15T00:44:38;99030.69;;;1.86;100.00
20145;BME280;10233;50.814;6.590;2024-01-15T00:45:38;99025.63;;;1.84;100.00
20145;BME280;10233;50.814;6.590;2024-01-15T00:46:45;99028.88;;;1.86;100.00
20145;BME280;10233;50.814;6.590;2024-01-15T00:47:46;99019.66;;;1.90;100.00
20145;BME280;10233;50.814;6.590;2024-01-15T00:48:47;99024.63;;;1.85;100.00
20145;BME280;10233;50.814;6.590;2024-01-15T00:49:47;99027.22;;;1.85;100.00
20145;BME280;10233;50.814;6.590;2024-01-15T00:50:48;99019.38;;;1.85;100.00
20145;BME280;10233;50.814;6.590;2024-01-15T00:51:48;99023.81;;;1.85;100.00
20145;BME280;10233;50.814;6.590;2024-01-15T00:52:48;99016.13;;;1.83;100.00
20145;BME280;10233;50.814;6.590;2024-01-15T00:53:49;99015.97;;;1.85;100.00
20145;BME280;10233;50.814;6.590;2024-01-15T00:54:49;99012.91;;;1.81;100.00
20145;BME280;10233;50.814;6.590;2024-01-15T00:55:50;99011.53;;;1.85;100.00
20145;BME280;10233;50.814;6.590;2024-01-15T00:56:50;99014.81;;;1.87;100.00
20145;BME280;10233;50.814;6.590;2024-01-15T00:57:50;99020.22;;;1.86;100.00
20145;BME280;10233;50.814;6.590;2024-01-15T00:58:51;99016.88;;;1.92;100.00
20145;BME280;10233;50.814;6.590;2024-01-15T00:59:51;99018.03;;;1.89;100.00
20145;BME280;10233;50.814;6.590;2024-01-15T01:00:52;99019.03;;;1.88;100.00
20145;BME280;10233;50.814;6.590;2024-01-15T01:01:52;99019.66;;;1.90;100.00
20145;BME280;10233;50.814;6.590;2024-01-15T01:02:53;99016.25;;;1.90;100.00
20145;BME280;10233;50.814;6.590;2024-01-15T01:03:53;99017.25;;;1.89;100.00
20145;BME280;10233;50.814;6.590;2024-01-15T01:04:54;99017.88;;;1.91;100.00
20145;BME280;10233;50.814;6.590;2024-01-15T01:05:54;99018.03;;;1.89;100.00
20145;BME280;10233;50.814;6.590;2024-01-15T01:06:54;99017.03;;;1.90;100.00
20145;BME280;10233;50.814;6.590;2024-01-15T01:07:55;99013.63;;;1.90;100.00
20145;BME280;10233;50.814;6.590;2024-01-15T01:08:55;99019.91;;;1.81;100.00
20145;BME280;10233;50.814;6.590;2024-01-15T01:09:56;99016.69;;;1.79;100.00
20145;BME280;10233;50.814;6.590;2024-01-15T01:10:56;99027.16;;;1.79;100.00
20145;BME280;10233;50.814;6.590;2024-01-15T01:11:57;99019.47;;;1.77;100.00
20145;BME280;10233;50.814;6.590;2024-01-15T01:12:57;99022.25;;;1.76;100.00
20145;BME280;10233;50.814;6.590;2024-01-15T01:13:58;99024.53;;;1.79;100.00
20145;BME280;10233;50.814;6.590;2024-01-15T01:14:58;99024.16;;;1.82;100.00
20145;BME280;10233;50.814;6.590;2024-01-15T01:15:59;99022.53;;;1.81;100.00
20145;BME280;10233;50.814;6.590;2024-01-15T01:16:59;99026.59;;;1.83;100.00
20145;BME280;10233;50.814;6.590;2024-01-15T01:18:00;99023.00;;;1.84;100.00
20145;BME280;10233;50.814;6.590;2024-01-15T01:19:00;99006.66;;;1.82;100.00
20145;BME280;10233;50.814;6.590;2024-01-15T01:20:00;99025.63;;;1.84;100.00
20145;BME280;10233;50.814;6.590;2024-01-15T01:21:04;99021.31;;;1.91;100.00
20145;BME280;10233;50.814;6.590;2024-01-15T01:22:04;99015.69;;;1.94;100.00
20145;BME280;10233;50.814;6.590;2024-01-15T01:23:05;99027.22;;;1.85;100.00
20145;BME280;10233;50.814;6.590;2024-01-15T01:24:05;99023.28;;;1.89;100.00
20145;BME280;10233;50.814;6.590;2024-01-15T01:25:06;99019.16;;;1.95;100.00
20145;BME280;10233;50.814;6.590;2024-01-15T01:26:07;99010.47;;;1.94;100.00
20145;BME280;10233;50.814;6.590;2024-01-15T01:27:07;99018.97;;;1.96;100.00
20145;BME280;10233;50.814;6.590;2024-01-15T01:28:07;99016.59;;;1.87;100.00
20145;BME280;10233;50.814;6.590;2024-01-15T01:29:08;99026.44;;;1.85;100.00
20145;BME280;10233;50.814;6.590;2024-01-15T01:30:09;99033.84;;;1.81;100.00
20145;BME280;10233;50.814;6.590;2024-01-15T01:31:09;99025.69;;;1.76;100.00
20145;BME280;10233;50.814;6.590;2024-01-15T01:32:09;99025.50;;;1.77;100.00
20145;BME280;10233;50.814;6.590;2024-01-15T01:33:10;99030.47;;;1.73;100.00
20145;BME280;10233;50.814;6.590;2024-01-15T01:34:13;99033.44;;;1.70;100.00
20145;BME280;10233;50.814;6.590;2024-01-15T01:35:14;99035.25;;;1.69;100.00
20145;BME280;10233;50.814;6.590;2024-01-15T01:36:14;99031.34;;;1.65;100.00
20145;BME280;10233;50.814;6.590;2024-01-15T01:37:15;99028.44;;;1.60;100.00
20145;BME280;10233;50.814;6.590;2024-01-15T01:38:15;99037.56;;;1.64;100.00
20145;BME280;10233;50.814;6.590;2024-01-15T01:39:16;99033.66;;;1.60;100.00
20145;BME280;10233;50.814;6.590;2024-01-15T01:40:16;99036.13;;;1.62;100.00
20145;BME280;10233;50.814;6.590;2024-01-15T01:41:17;99038.28;;;1.58;100.00
20145;BME280;10233;50.814;6.590;2024-01-15T01:42:17;99030.44;;;1.58;100.00
20145;BME280;10233;50.814;6.590;2024-01-15T01:43:18;99027.94;;;1.65;100.00
20145;BME280;10233;50.814;6.590;2024-01-15T01:44:18;99036.94;;;1.62;100.00
20145;BME280;10233;50.814;6.590;2024-01-15T01:45:18;99037.75;;;1.63;100.00
20145;BME280;10233;50.814;6.590;2024-01-15T01:46:19;99029.25;;;1.61;100.00
20145;BME280;10233;50.814;6.590;2024-01-15T01:47:19;99034.03;;;1.57;100.00
20145;BME280;10233;50.814;6.590;2024-01-15T01:48:20;99036.78;;;1.64;100.00
20145;BME280;10233;50.814;6.590;2024-01-15T01:49:22;99029.72;;;1.64;100.00
20145;BME280;10233;50.814;6.590;2024-01-15T01:50:22;99030.53;;;1.65;100.00
20145;BME280;10233;50.814;6.590;2024-01-15T01:51:24;99027.47;;;1.61;100.00
20145;BME280;10233;50.814;6.590;2024-01-15T01:52:25;99025.31;;;1.65;100.00
20145;BME280;10233;50.814;6.590;2024-01-15T01:53:26;99029.00;;;1.70;100.00
20145;BME280;10233;50.814;6.590;2024-01-15T01:54:29;99032.78;;;1.67;100.00
20145;BME280;10233;50.814;6.590;2024-01-15T01:55:31;99030.81;;;1.70;100.00
20145;BME280;10233;50.814;6.590;2024-01-15T01:56:33;99036.56;;;1.65;100.00
20145;BME280;10233;50.814;6.590;2024-01-15T01:57:34;99037.22;;;1.67;100.00
20145;BME280;10233;50.814;6.590;2024-01-15T01:58:35;99036.22;;;1.68;100.00
20145;BME280;10233;50.814;6.590;2024-01-15T01:59:36;99033.44;;;1.70;100.00
20145;BME280;10233;50.814;6.590;2024-01-15T02:00:37;99027.75;;;1.66;100.00
20145;BME280;10233;50.814;6.590;2024-01-15T02:01:38;99023.69;;;1.64;100.00
20145;BME280;10233;50.814;6.590;2024-01-15T02:02:38;99031.91;;;1.75;100.00
20145;BME280;10233;50.814;6.590;2024-01-15T02:03:40;99028.56;;;1.67;100.00
20145;BME280;10233;50.814;6.590;2024-01-15T02:04:40;99026.63;;;1.61;100.00
20145;BME280;10233;50.814;6.590;2024-01-15T02:05:43;99025.66;;;1.62;100.00
20145;BME280;10233;50.814;6.590;2024-01-15T02:06:44;99030.09;;;1.61;100.00
20145;BME280;10233;50.814;6.590;2024-01-15T02:07:45;99036.13;;;1.62;100.00
20145;BME280;10233;50.814;6.590;2024-01-15T02:08:45;99038.28;;;1.58;100.00
20145;BME280;10233;50.814;6.590;2024-01-15T02:09:46;99039.44;;;1.56;100.00
20145;BME280;10233;50.814;6.590;2024-01-15T02:10:46;99044.78;;;1.62;100.00
20145;BME280;10233;50.814;6.590;2024-01-15T02:11:47;99042.97;;;1.63;100.00
20145;BME280;10233;50.814;6.590;2024-01-15T02:12:48;99041.72;;;1.59;100.00
20145;BME280;10233;50.814;6.590;2024-01-15T02:13:49;99041.41;;;1.53;100.00
20145;BME280;10233;50.814;6.590;2024-01-15T02:14:49;99038.50;;;1.48;100.00
20145;BME280;10233;50.814;6.590;2024-01-15T02:15:50;99050.25;;;1.52;100.00
20145;BME280;10233;50.814;6.590;2024-01-15T02:16:50;99032.28;;;1.50;100.00
20145;BME280;10233;50.814;6.590;2024-01-15T02:18:00;99044.22;;;1.52;100.00
20145;BME280;10233;50.814;6.590;2024-01-15T02:19:03;99050.41;;;1.51;100.00
20145;BME280;10233;50.814;6.590;2024-01-15T02:20:04;99045.84;;;1.53;100.00
20145;BME280;10233;50.814;6.590;2024-01-15T02:21:04;99041.78;;;1.51;100.00
20145;BME280;10233;50.814;6.590;2024-01-15T02:22:05;99044.03;;;1.53;100.00
20145;BME280;10233;50.814;6.590;2024-01-15T02:23:10;99043.22;;;1.53;100.00
20145;BME280;10233;50.814;6.590;2024-01-15T02:24:11;99041.22;;;1.55;100.00
20145;BME280;10233;50.814;6.590;2024-01-15T02:25:12;99042.06;;;1.56;100.00
20145;BME280;10233;50.814;6.590;2024-01-15T02:26:12;99044.50;;;1.57;100.00
20145;BME280;10233;50.814;6.590;2024-01-15T02:27:14;99038.44;;;1.57;100.00
20145;BME280;10233;50.814;6.590;2024-01-15T02:28:16;99033.03;;;1.58;100.00
20145;BME280;10233;50.814;6.590;2024-01-15T02:29:17;99032.38;;;1.56;100.00
20145;BME280;10233;50.814;6.590;2024-01-15T02:30:18;99039.91;;;1.59;100.00
20145;BME280;10233;50.814;6.590;2024-01-15T02:31:18;99034.03;;;1.57;100.00
20145;BME280;10233;50.814;6.590;2024-01-15T02:32:19;99037.63;;;1.56;100.00
20145;BME280;10233;50.814;6.590;2024-01-15T02:33:19;99033.22;;;1.57;100.00
20145;BME280;10233;50.814;6.590;2024-01-15T02:34:19;99036.38;;;1.52;100.00
20145;BME280;10233;50.814;6.590;2024-01-15T02:35:20;99033.09;;;1.50;100.00
20145;BME280;10233;50.814;6.590;2024-01-15T02:36:20;99035.72;;;1.50;100.00
20145;BME280;10233;50.814;6.590;2024-01-15T02:37:21;99030.66;;;1.48;100.00
20145;BME280;10233;50.814;6.590;2024-01-15T02:38:21;99040.16;;;1.50;100.00
20145;BME280;10233;50.814;6.590;2024-01-15T02:39:22;99036.69;;;1.49;100.00
20145;BME280;10233;50.814;6.590;2024-01-15T02:40:22;99038.03;;;1.45;100.00
20145;BME280;10233;50.814;6.590;2024-01-15T02:41:23;99031.81;;;1.46;100.00
20145;BME280;10233;50.814;6.590;2024-01-15T02:42:23;99034.63;;;1.45;100.00
20145;BME280;10233;50.814;6.590;2024-01-15T02:43:23;99040.19;;;1.42;100.00
20145;BME280;10233;50.814;6.590;2024-01-15T02:44:24;99038.75;;;1.39;100.00
20145;BME280;10233;50.814;6.590;2024-01-15T02:45:25;99036.75;;;1.41;100.00
20145;BME280;10233;50.814;6.590;2024-01-15T02:46:25;99041.03;;;1.42;100.00
20145;BME280;10233;50.814;6.590;2024-01-15T02:47:26;99042.19;;;1.40;100.00
20145;BME280;10233;50.814;6.590;2024-01-15T02:48:26;99047.41;;;1.40;100.00
20145;BME280;10233;50.814;6.590;2024-01-15T02:49:27;99039.38;;;1.41;100.00
20145;BME280;10233;50.814;6.590;2024-01-15T02:50:27;99041.34;;;1.39;100.00
20145;BME280;10233;50.814;6.590;2024-01-15T02:51:28;99036.47;;;1.36;100.00
20145;BME280;10233;50.814;6.590;2024-01-15T02:52:28;99036.94;;;1.40;100.00
20145;BME280;10233;50.814;6.590;2024-01-15T02:53:28;99036.75;;;1.41;100.00
20145;BME280;10233;50.814;6.590;2024-01-15T02:54:29;99037.91;;;1.38;100.00
20145;BME280;10233;50.814;6.590;2024-01-15T02:55:29;99034.97;;;1.42;100.00
20145;BME280;10233;50.814;6.590;2024-01-15T02:56:30;99035.66;;;1.36;100.00
20145;BME280;10233;50.814;6.590;2024-01-15T02:57:30;99041.22;;;1.33;100.00
20145;BME280;10233;50.814;6.590;2024-01-15T02:58:30;99040.72;;;1.37;100.00
20145;BME280;10233;50.814;6.590;2024-01-15T02:59:31;99048.09;;;1.33;100.00
20145;BME280;10233;50.814;6.590;2024-01-15T03:00:31;99043.34;;;1.37;100.00
20145;BME280;10233;50.814;6.590;2024-01-15T03:01:32;99047.75;;;1.37;100.00
20145;BME280;10233;50.814;6.590;2024-01-15T03:02:35;99051.66;;;1.41;100.00
20145;BME280;10233;50.814;6.590;2024-01-15T03:03:36;99049.50;;;1.44;100.00
20145;BME280;10233;50.814;6.590;2024-01-15T03:04:42;99049.84;;;1.41;100.00
20145;BME280;10233;50.814;6.590;2024-01-15T03:05:49;99050.31;;;1.45;100.00
20145;BME280;10233;50.814;6.590;2024-01-15T03:06:49;99057.50;;;1.42;100.00
20145;BME280;10233;50.814;6.590;2024-01-15T03:07:49;99053.09;;;1.43;100.00
20145;BME280;10233;50.814;6.590;2024-01-15T03:08:50;99046.25;;;1.42;100.00
20145;BME280;10233;50.814;6.590;2024-01-15T03:09:50;99046.72;;;1.46;100.00
20145;BME280;10233;50.814;6.590;2024-01-15T03:10:51;99047.50;;;1.46;100.00
20145;BME280;10233;50.814;6.590;2024-01-15T03:11:51;99049.78;;;1.49;100.00
20145;BME280;10233;50.814;6.590;2024-01-15T03:12:52;99040.31;;;1.48;100.00
20145;BME280;10233;50.814;6.590;2024-01-15T03:13:52;99047.50;;;1.46;100.00
20145;BME280;10233;50.814;6.590;2024-01-15T03:14:52;99045.19;;;1.51;100.00
20145;BME280;10233;50.814;6.590;2024-01-15T03:15:53;99041.59;;;1.52;100.00
20145;BME280;10233;50.814;6.590;2024-01-15T03:16:53;99037.44;;;1.58;100.00
20145;BME280;10233;50.814;6.590;2024-01-15T03:17:54;99037.63;;;1.56;100.00
20145;BME280;10233;50.814;6.590;2024-01-15T03:18:56;99035.38;;;1.53;100.00
20145;BME280;10233;50.814;6.590;2024-01-15T03:19:56;99031.59;;;1.56;100.00
20145;BME280;10233;50.814;6.590;2024-01-15T03:20:57;99032.59;;;1.55;100.00
20145;BME280;10233;50.814;6.590;2024-01-15T03:21:57;99026.81;;;1.59;100.00
20145;BME280;10233;50.814;6.590;2024-01-15T03:22:58;99026.09;;;1.65;100.00
20145;BME280;10233;50.814;6.590;2024-01-15T03:23:58;99021.25;;;1.62;100.00
20145;BME280;10233;50.814;6.590;2024-01-15T03:24:58;99026.47;;;1.62;100.00
20145;BME280;10233;50.814;6.590;2024-01-15T03:25:59;99022.41;;;1.60;100.00
20145;BME280;10233;50.814;6.590;2024-01-15T03:26:59;99021.56;;;1.59;100.00
20145;BME280;10233;50.814;6.590;2024-01-15T03:28:00;99016.00;;;1.62;100.00
20145;BME280;10233;50.814;6.590;2024-01-15T03:29:01;99023.31;;;1.67;100.00
20145;BME280;10233;50.814;6.590;2024-01-15T03:30:02;99017.28;;;1.66;100.00
20145;BME280;10233;50.814;6.590;2024-01-15T03:31:02;99018.91;;;1.67;100.00
20145;BME280;10233;50.814;6.590;2024-01-15T03:32:03;99022.16;;;1.69;100.00
20145;BME280;10233;50.814;6.590;2024-01-15T03:33:04;99023.78;;;1.70;100.00
20145;BME280;10233;50.814;6.590;2024-01-15T03:34:04;99022.59;;;1.73;100.00
20145;BME280;10233;50.814;6.590;2024-01-15T03:35:05;99033.91;;;1.73;100.00
20145;BME280;10233;50.814;6.590;2024-01-15T03:36:06;99027.38;;;1.69;100.00
20145;BME280;10233;50.814;6.590;2024-01-15T03:37:06;99026.59;;;1.69;100.00
20145;BME280;10233;50.814;6.590;2024-01-15T03:38:07;99024.59;;;1.71;100.00
20145;BME280;10233;50.814;6.590;2024-01-15T03:39:08;99020.53;;;1.68;100.00
20145;BME280;10233;50.814;6.590;2024-01-15T03:40:09;99025.88;;;1.75;100.00
20145;BME280;10233;50.814;6.590;2024-01-15T03:41:09;99022.31;;;1.67;100.00
20145;BME280;10233;50.814;6.590;2024-01-15T03:42:10;99025.75;;;1.68;100.00
20145;BME280;10233;50.814;6.590;2024-01-15T03:43:10;99020.19;;;1.71;100.00
20145;BME280;10233;50.814;6.590;2024-01-15T03:44:11;99011.84;;;1.67;100.00
20145;BME280;10233;50.814;6.590;2024-01-15T03:45:11;99020.81;;;1.73;100.00
20145;BME280;10233;50.814;6.590;2024-01-15T03:46:11;99019.34;;;1.71;100.00
20145;BME280;10233;50.814;6.590;2024-01-15T03:47:12;99021.34;;;1.69;100.00
20145;BME280;10233;50.814;6.590;2024-01-15T03:48:13;99011.50;;;1.71;100.00
20145;BME280;10233;50.814;6.590;2024-01-15T03:49:13;99006.88;;;1.73;100.00
20145;BME280;10233;50.814;6.590;2024-01-15T03:50:14;99012.66;;;1.68;100.00
20145;BME280;10233;50.814;6.590;2024-01-15T03:51:17;99013.94;;;1.72;100.00
20145;BME280;10233;50.814;6.590;2024-01-15T03:52:17;99002.31;;;1.75;100.00
20145;BME280;10233;50.814;6.590;2024-01-15T03:53:18;99011.97;;;1.74;100.00
20145;BME280;10233;50.814;6.590;2024-01-15T03:54:18;99010.44;;;1.80;100.00
20145;BME280;10233;50.814;6.590;2024-01-15T03:55:18;99008.53;;;1.74;100.00
20145;BME280;10233;50.814;6.590;2024-01-15T03:56:19;99008.00;;;1.78;100.00
20145;BME280;10233;50.814;6.590;2024-01-15T03:57:19;99002.94;;;1.77;100.00
20145;BME280;10233;50.814;6.590;2024-01-15T03:58:20;99005.56;;;1.77;100.00
20145;BME280;10233;50.814;6.590;2024-01-15T03:59:20;99006.38;;;1.77;100.00
20145;BME280;10233;50.814;6.590;2024-01-15T04:00:22;99001.94;;;1.77;100.00
20145;BME280;10233;50.814;6.590;2024-01-15T04:01:22;99002.94;;;1.77;100.00
20145;BME280;10233;50.814;6.590;2024-01-15T04:02:23;98995.53;;;1.80;100.00
20145;BME280;10233;50.814;6.590;2024-01-15T04:03:23;98999.31;;;1.77;100.00
20145;BME280;10233;50.814;6.590;2024-01-15T04:04:24;99003.59;;;1.79;100.00
20145;BME280;10233;50.814;6.590;2024-01-15T04:05:24;98994.34;;;1.83;100.00
20145;BME280;10233;50.814;6.590;2024-01-15T04:06:25;99000.44;;;1.83;100.00
20145;BME280;10233;50.814;6.590;2024-01-15T04:07:25;98995.00;;;1.85;100.00
20145;BME280;10233;50.814;6.590;2024-01-15T04:08:25;98993.84;;;1.87;100.00
20145;BME280;10233;50.814;6.590;2024-01-15T04:09:26;99001.03;;;1.85;100.00
20145;BME280;10233;50.814;6.590;2024-01-15T04:10:26;99001.53;;;1.89;100.00
20145;BME280;10233;50.814;6.590;2024-01-15T04:11:27;98992.69;;;1.90;100.00
20145;BME280;10233;50.814;6.590;2024-01-15T04:12:27;98996.47;;;1.87;100.00
20145;BME280;10233;50.814;6.590;2024-01-15T04:13:28;98994.47;;;1.89;100.00
20145;BME280;10233;50.814;6.590;2024-01-15T04:14:29;98993.19;;;1.85;100.00
20145;BME280;10233;50.814;6.590;2024-01-15T04:15:29;98997.47;;;1.86;100.00
20145;BME280;10233;50.814;6.590;2024-01-15T04:16:30;98994.28;;;1.91;100.00
20145;BME280;10233;50.814;6.590;2024-01-15T04:17:30;98993.84;;;1.87;100.00
20145;BME280;10233;50.814;6.590;2024-01-15T04:18:33;98993.13;;;1.93;100.00
20145;BME280;10233;50.814;6.590;2024-01-15T04:19:34;98989.88;;;1.91;100.00
20145;BME280;10233;50.814;6.590;2024-01-15T04:20:34;98988.22;;;1.90;100.00
20145;BME280;10233;50.814;6.590;2024-01-15T04:21:35;98988.88;;;1.92;100.00
20145;BME280;10233;50.814;6.590;2024-01-15T04:22:35;98995.56;;;1.95;100.00
20145;BME280;10233;50.814;6.590;2024-01-15T04:23:36;98983.47;;;1.94;100.00
20145;BME280;10233;50.814;6.590;2024-01-15T04:24:36;98983.28;;;1.95;100.00
20145;BME280;10233;50.814;6.590;2024-01-15T04:25:37;98984.28;;;1.94;100.00
20145;BME280;10233;50.814;6.590;2024-01-15T04:26:37;98988.34;;;1.97;100.00
20145;BME280;10233;50.814;6.590;2024-01-15T04:27:37;98986.72;;;1.96;100.00
20145;BME280;10233;50.814;6.590;2024-01-15T04:28:38;98985.72;;;1.97;100.00
20145;BME280;10233;50.814;6.590;2024-01-15T04:29:39;98984.53;;;1.99;100.00
20145;BME280;10233;50.814;6.590;2024-01-15T04:30:39;98984.38;;;2.01;100.00
20145;BME280;10233;50.814;6.590;2024-01-15T04:31:40;98984.81;;;2.04;100.00
20145;BME280;10233;50.814;6.590;2024-01-15T04:32:40;98975.16;;;2.05;100.00
20145;BME280;10233;50.814;6.590;2024-01-15T04:33:41;98981.03;;;2.07;100.00
20145;BME280;10233;50.814;6.590;2024-01-15T04:34:41;98981.56;;;2.02;100.00
20145;BME280;10233;50.814;6.590;2024-01-15T04:35:42;98978.41;;;2.07;100.00
20145;BME280;10233;50.814;6.590;2024-01-15T04:36:42;98977.63;;;2.06;100.00
20145;BME280;10233;50.814;6.590;2024-01-15T04:37:43;98975.63;;;2.08;100.00
20145;BME280;10233;50.814;6.590;2024-01-15T04:38:43;98976.63;;;2.07;100.00
20145;BME280;10233;50.814;6.590;2024-01-15T04:39:44;98978.50;;;2.13;100.00
20145;BME280;10233;50.814;6.590;2024-01-15T04:40:44;98969.09;;;2.04;100.00
20145;BME280;10233;50.814;6.590;2024-01-15T04:41:44;98965.50;;;2.05;100.00
20145;BME280;10233;50.814;6.590;2024-01-15T04:42:45;98969.31;;;2.03;100.00
20145;BME280;10233;50.814;6.590;2024-01-15T04:43:48;98967.94;;;2.07;100.00
20145;BME280;10233;50.814;6.590;2024-01-15T04:44:49;98970.19;;;2.10;100.00
20145;BME280;10233;50.814;6.590;2024-01-15T04:45:49;98962.25;;;2.03;100.00
20145;BME280;10233;50.814;6.590;2024-01-15T04:46:50;98967.47;;;2.03;100.00
20145;BME280;10233;50.814;6.590;2024-01-15T04:47:50;98962.41;;;2.02;100.00
20145;BME280;10233;50.814;6.590;2024-01-15T04:48:51;98966.69;;;2.03;100.00
20145;BME280;10233;50.814;6.590;2024-01-15T04:49:51;98967.66;;;2.02;100.00
20145;BME280;10233;50.814;6.590;2024-01-15T04:50:51;98960.00;;;2.00;100.00
20145;BME280;10233;50.814;6.590;2024-01-15T04:51:52;98967.22;;;1.98;100.00
20145;BME280;10233;50.814;6.590;2024-01-15T04:52:53;98975.06;;;1.98;100.00
20145;BME280;10233;50.814;6.590;2024-01-15T04:53:53;98973.44;;;1.97;100.00
20145;BME280;10233;50.814;6.590;2024-01-15T04:54:53;98964.59;;;1.98;100.00
20145;BME280;10233;50.814;6.590;2024-01-15T04:55:54;98965.88;;;2.02;100.00
20145;BME280;10233;50.814;6.590;2024-01-15T04:56:55;98975.72;;;2.00;100.00
20145;BME280;10233;50.814;6.590;2024-01-15T04:57:55;98973.44;;;1.97;100.00
20145;BME280;10233;50.814;6.590;2024-01-15T04:58:56;98975.72;;;2.00;100.00
20145;BME280;10233;50.814;6.590;2024-01-15T04:59:56;98973.72;;;2.02;100.00
20145;BME280;10233;50.814;6.590;2024-01-15T05:00:57;98973.28;;;1.99;100.00
20145;BME280;10233;50.814;6.590;2024-01-15T05:01:57;98974.53;;;2.03;100.00
20145;BME280;10233;50.814;6.590;2024-01-15T05:02:58;98966.22;;;1.99;100.00
20145;BME280;10233;50.814;6.590;2024-01-15T05:03:59;98975.91;;;1.99;100.00
20145;BME280;10233;50.814;6.590;2024-01-15T05:04:59;98965.88;;;2.02;100.00
20145;BME280;10233;50.814;6.590;2024-01-15T05:05:59;98965.03;;;2.02;100.00
20145;BME280;10233;50.814;6.590;2024-01-15T05:07:00;98960.97;;;1.99;100.00
20145;BME280;10233;50.814;6.590;2024-01-15T05:08:00;98971.44;;;1.99;100.00
20145;BME280;10233;50.814;6.590;2024-01-15T05:09:01;98962.97;;;1.97;100.00
20145;BME280;10233;50.814;6.590;2024-01-15T05:10:01;98954.28;;;1.97;100.00
20145;BME280;10233;50.814;6.590;2024-01-15T05:11:02;98965.88;;;2.02;100.00
20145;BME280;10233;50.814;6.590;2024-01-15T05:12:03;98966.22;;;1.99;100.00
20145;BME280;10233;50.814;6.590;2024-01-15T05:13:04;98969.66;;;2.00;100.00
20145;BME280;10233;50.814;6.590;2024-01-15T05:14:04;98969.56;;;1.93;100.00
20145;BME280;10233;50.814;6.590;2024-01-15T05:15:05;98963.50;;;1.92;100.00
20145;BME280;10233;50.814;6.590;2024-01-15T05:16:06;98965.31;;;1.92;100.00
20145;BME280;10233;50.814;6.590;2024-01-15T05:17:06;98970.19;;;1.95;100.00
20145;BME280;10233;50.814;6.590;2024-01-15T05:18:07;98965.13;;;1.94;100.00
20145;BME280;10233;50.814;6.590;2024-01-15T05:19:08;98960.69;;;1.94;100.00
20145;BME280;10233;50.814;6.590;2024-01-15T05:20:09;98956.47;;;1.93;100.00
20145;BME280;10233;50.814;6.590;2024-01-15T05:21:10;98958.06;;;1.94;100.00